createdAt,value
2018-09-02T00:00:16.886Z,18.25
2018-09-02T00:02:45.818Z,18.27
2018-09-02T00:05:14.155Z,18.21
2018-09-02T00:07:42.467Z,18.05
2018-09-02T00:10:10.808Z,17.98
2018-09-02T00:12:39.121Z,17.95
2018-09-02T00:15:06.874Z,17.96
2018-09-02T00:17:35.812Z,17.93
2018-09-02T00:20:04.134Z,17.90
2018-09-02T00:22:31.893Z,17.73
2018-09-02T00:25:00.797Z,17.53
2018-09-02T00:27:28.546Z,17.35
2018-09-02T00:29:57.450Z,17.24
2018-09-02T00:32:26.169Z,17.21
2018-09-02T00:34:53.922Z,17.27
2018-09-02T00:37:22.830Z,17.36
2018-09-02T00:39:51.195Z,17.41
2018-09-02T00:42:19.522Z,17.36
2018-09-02T00:44:47.853Z,17.27
2018-09-02T00:47:17.373Z,17.20
2018-09-02T00:49:44.750Z,17.13
2018-09-02T00:52:13.659Z,17.08
2018-09-02T00:54:41.988Z,17.07
2018-09-02T00:57:09.739Z,17.13
2018-09-02T00:59:38.668Z,17.15
2018-09-02T01:02:06.980Z,17.17
2018-09-02T01:04:34.722Z,17.10
2018-09-02T01:07:03.062Z,17.00
2018-09-02T01:09:31.399Z,16.90
2018-09-02T01:11:59.789Z,16.81
2018-09-02T01:14:28.636Z,16.75
2018-09-02T01:16:56.382Z,16.80
2018-09-02T01:19:25.432Z,16.80
2018-09-02T01:21:53.791Z,16.76
2018-09-02T01:24:22.175Z,16.84
2018-09-02T01:26:50.494Z,16.91
2018-09-02T01:29:18.828Z,16.94
2018-09-02T01:31:47.156Z,17.00
2018-09-02T01:34:16.247Z,16.92
2018-09-02T01:36:44.586Z,16.82
2018-09-02T01:39:12.921Z,16.81
2018-09-02T01:41:41.251Z,16.89
2018-09-02T01:44:08.998Z,17.00
2018-09-02T01:46:37.323Z,17.09
2018-09-02T01:49:07.082Z,17.16
2018-09-02T01:51:34.836Z,17.22
2018-09-02T01:54:03.770Z,17.24
2018-09-02T01:56:31.517Z,17.20
2018-09-02T01:59:00.423Z,17.18
2018-09-02T02:01:28.774Z,17.20
2018-09-02T02:03:57.099Z,17.15
2018-09-02T02:06:25.432Z,17.14
2018-09-02T02:08:53.185Z,17.10
2018-09-02T02:11:22.096Z,17.14
2018-09-02T02:13:50.426Z,17.17
2018-09-02T02:16:18.177Z,17.20
2018-09-02T02:18:47.089Z,17.25
2018-09-02T02:21:15.479Z,17.29
2018-09-02T02:23:43.813Z,17.28
2018-09-02T02:26:12.139Z,17.25
2018-09-02T02:28:40.465Z,17.22
2018-09-02T02:31:08.799Z,17.20
2018-09-02T02:33:37.120Z,17.11
2018-09-02T02:36:04.866Z,16.97
2018-09-02T02:38:33.184Z,16.90
2018-09-02T02:41:02.093Z,16.83
2018-09-02T02:43:29.841Z,16.80
2018-09-02T02:45:58.770Z,16.77
2018-09-02T02:48:27.110Z,16.72
2018-09-02T02:50:56.595Z,16.64
2018-09-02T02:53:23.768Z,16.41
2018-09-02T02:55:52.106Z,16.22
2018-09-02T02:58:20.439Z,16.10
2018-09-02T03:00:48.197Z,16.07
2018-09-02T03:03:16.522Z,16.12
2018-09-02T03:05:45.424Z,16.12
2018-09-02T03:08:13.744Z,16.11
2018-09-02T03:10:41.535Z,16.14
2018-09-02T03:13:10.396Z,16.25
2018-09-02T03:15:38.725Z,16.37
2018-09-02T03:18:06.465Z,16.49
2018-09-02T03:20:35.378Z,16.59
2018-09-02T03:23:03.575Z,16.62
2018-09-02T03:25:32.052Z,16.66
2018-09-02T03:27:59.786Z,16.69
2018-09-02T03:30:28.688Z,16.64
2018-09-02T03:32:57.017Z,16.53
2018-09-02T03:35:25.339Z,16.52
2018-09-02T03:37:53.664Z,16.56
2018-09-02T03:40:22.006Z,16.49
2018-09-02T03:42:50.322Z,16.48
2018-09-02T03:45:18.071Z,16.51
2018-09-02T03:47:46.979Z,16.47
2018-09-02T03:50:15.326Z,16.40
2018-09-02T03:52:43.076Z,16.41
2018-09-02T03:55:11.394Z,16.46
2018-09-02T03:57:40.305Z,16.44
2018-09-02T04:00:08.634Z,16.31
2018-09-02T04:02:36.967Z,16.25
2018-09-02T04:05:05.288Z,16.30
2018-09-02T04:07:33.069Z,16.23
2018-09-02T04:10:01.996Z,16.14
2018-09-02T04:12:30.322Z,16.13
2018-09-02T04:14:58.661Z,16.22
2018-09-02T04:17:26.994Z,16.27
2018-09-02T04:19:55.306Z,16.07
2018-09-02T04:22:23.630Z,15.88
2018-09-02T04:24:51.961Z,15.80
2018-09-02T04:27:20.279Z,15.87
2018-09-02T04:29:48.019Z,15.96
2018-09-02T04:32:16.926Z,16.06
2018-09-02T04:34:45.271Z,16.15
2018-09-02T04:37:13.586Z,16.24
2018-09-02T04:39:41.943Z,16.22
2018-09-02T04:42:10.270Z,16.17
2018-09-02T04:44:38.594Z,16.23
2018-09-02T04:47:06.917Z,16.27
2018-09-02T04:49:35.272Z,16.23
2018-09-02T04:52:03.600Z,16.28
2018-09-02T04:54:31.987Z,16.34
2018-09-02T04:57:00.263Z,16.40
2018-09-02T04:59:28.594Z,16.43
2018-09-02T05:01:56.346Z,16.46
2018-09-02T05:04:24.674Z,16.45
2018-09-02T05:06:53.579Z,16.51
2018-09-02T05:09:21.909Z,16.58
2018-09-02T05:11:49.658Z,16.60
2018-09-02T05:14:18.764Z,16.51
2018-09-02T05:16:46.884Z,16.43
2018-09-02T05:19:14.639Z,16.38
2018-09-02T05:21:43.540Z,16.42
2018-09-02T05:24:11.869Z,16.50
2018-09-02T05:26:40.208Z,16.56
2018-09-02T05:29:07.953Z,16.66
2018-09-02T05:31:36.849Z,16.80
2018-09-02T05:34:04.595Z,16.90
2018-09-02T05:36:32.939Z,17.01
2018-09-02T05:39:01.831Z,17.17
2018-09-02T05:41:29.590Z,17.31
2018-09-02T05:43:58.497Z,17.41
2018-09-02T05:46:26.817Z,17.54
2018-09-02T05:48:55.153Z,17.68
2018-09-02T05:51:23.243Z,17.85
2018-09-02T05:53:51.836Z,18.03
2018-09-02T05:56:20.763Z,18.13
2018-09-02T05:58:48.505Z,18.17
2018-09-02T06:01:16.259Z,18.21
2018-09-02T06:03:44.618Z,18.17
2018-09-02T06:06:13.528Z,18.17
2018-09-02T06:08:41.856Z,18.28
2018-09-02T06:11:10.215Z,18.32
2018-09-02T06:13:38.531Z,18.34
2018-09-02T06:16:06.279Z,18.42
2018-09-02T06:18:35.186Z,18.54
2018-09-02T06:21:03.517Z,18.57
2018-09-02T06:23:31.859Z,18.59
2018-09-02T06:26:00.205Z,18.57
2018-09-02T06:28:28.624Z,18.69
2018-09-02T06:30:56.954Z,18.82
2018-09-02T06:33:25.279Z,18.93
2018-09-02T06:35:53.611Z,18.96
2018-09-02T06:38:22.081Z,19.08
2018-09-02T06:40:49.849Z,19.24
2018-09-02T06:43:18.766Z,19.37
2018-09-02T06:45:47.169Z,19.48
2018-09-02T06:48:15.446Z,19.54
2018-09-02T06:50:43.194Z,19.60
2018-09-02T06:53:12.105Z,19.66
2018-09-02T06:55:39.859Z,19.72
2018-09-02T06:58:08.203Z,19.79
2018-09-02T07:00:37.110Z,19.86
2018-09-02T07:03:04.860Z,19.89
2018-09-02T07:05:33.274Z,19.91
2018-09-02T07:08:02.142Z,19.95
2018-09-02T07:10:30.694Z,20.02
2018-09-02T07:12:58.221Z,20.09
2018-09-02T07:15:27.120Z,20.12
2018-09-02T07:17:55.450Z,20.17
2018-09-02T07:20:23.781Z,20.26
2018-09-02T07:22:52.099Z,20.32
2018-09-02T07:25:19.859Z,20.39
2018-09-02T07:27:48.767Z,20.38
2018-09-02T07:30:17.180Z,20.42
2018-09-02T07:32:45.498Z,20.48
2018-09-02T07:35:14.354Z,20.53
2018-09-02T07:37:42.458Z,20.60
2018-09-02T07:40:10.798Z,20.62
2018-09-02T07:42:38.540Z,20.67
2018-09-02T07:45:07.466Z,20.75
2018-09-02T07:47:35.821Z,20.79
2018-09-02T07:50:04.149Z,20.84
2018-09-02T07:52:32.476Z,20.86
2018-09-02T07:55:00.254Z,20.89
2018-09-02T07:57:29.692Z,20.84
2018-09-02T07:59:58.018Z,20.93
2018-09-02T08:02:26.141Z,20.99
2018-09-02T08:04:53.895Z,21.08
2018-09-02T08:07:22.792Z,21.13
2018-09-02T08:09:51.129Z,21.14
2018-09-02T08:12:19.396Z,21.14
2018-09-02T08:14:47.817Z,21.13
2018-09-02T08:17:16.145Z,21.08
2018-09-02T08:19:44.473Z,21.05
2018-09-02T08:22:12.805Z,21.05
2018-09-02T08:24:41.132Z,20.99
2018-09-02T08:27:09.782Z,20.96
2018-09-02T08:29:38.919Z,20.97
2018-09-02T08:32:07.030Z,21.08
2018-09-02T08:34:35.387Z,21.21
2018-09-02T08:37:03.713Z,21.31
2018-09-02T08:39:32.085Z,21.42
2018-09-02T08:42:00.363Z,21.56
2018-09-02T08:44:28.691Z,21.68
2018-09-02T08:46:57.013Z,21.79
2018-09-02T08:49:25.364Z,21.92
2018-09-02T08:51:53.086Z,22.07
2018-09-02T08:54:21.416Z,22.18
2018-09-02T08:56:50.327Z,22.28
2018-09-02T08:59:18.665Z,22.36
2018-09-02T09:01:47.200Z,22.43
2018-09-02T09:04:15.432Z,22.47
2018-09-02T09:06:43.286Z,22.48
2018-09-02T09:09:11.784Z,22.45
2018-09-02T09:11:40.521Z,22.44
2018-09-02T09:14:08.919Z,22.44
2018-09-02T09:16:37.223Z,22.46
2018-09-02T09:19:04.910Z,22.51
2018-09-02T09:21:33.949Z,22.54
2018-09-02T09:24:01.688Z,22.59
2018-09-02T09:26:30.547Z,22.61
2018-09-02T09:28:58.860Z,22.61
2018-09-02T09:31:27.209Z,22.63
2018-09-02T09:33:55.562Z,22.59
2018-09-02T09:36:23.313Z,22.61
2018-09-02T09:38:52.219Z,22.62
2018-09-02T09:41:19.955Z,22.63
2018-09-02T09:43:48.866Z,22.63
2018-09-02T09:46:17.191Z,22.69
2018-09-02T09:48:44.943Z,22.74
2018-09-02T09:51:13.538Z,22.77
2018-09-02T09:53:42.459Z,22.82
2018-09-02T09:56:10.760Z,22.84
2018-09-02T09:58:39.082Z,22.86
2018-09-02T10:01:07.410Z,22.94
2018-09-02T10:03:35.178Z,22.96
2018-09-02T10:06:04.063Z,23.00
2018-09-02T10:08:32.394Z,23.03
2018-09-02T10:11:00.871Z,23.08
2018-09-02T10:13:29.190Z,23.10
2018-09-02T10:15:57.510Z,23.11
2018-09-02T10:18:25.828Z,23.12
2018-09-02T10:20:54.145Z,23.11
2018-09-02T10:23:21.885Z,23.16
2018-09-02T10:25:50.209Z,23.20
2018-09-02T10:28:19.147Z,23.19
2018-09-02T10:30:47.476Z,23.15
2018-09-02T10:33:15.266Z,23.08
2018-09-02T10:35:43.579Z,23.05
2018-09-02T10:38:12.496Z,22.99
2018-09-02T10:40:40.240Z,22.93
2018-09-02T10:43:08.570Z,22.88
2018-09-02T10:45:37.468Z,22.86
2018-09-02T10:48:05.204Z,22.80
2018-09-02T10:50:34.140Z,22.79
2018-09-02T10:53:02.455Z,22.73
2018-09-02T10:55:30.774Z,22.67
2018-09-02T10:57:59.097Z,22.63
2018-09-02T11:00:27.916Z,22.63
2018-09-02T11:02:56.238Z,22.64
2018-09-02T11:05:24.622Z,22.71
2018-09-02T11:07:53.029Z,22.84
2018-09-02T11:10:20.770Z,22.92
2018-09-02T11:12:49.681Z,23.01
2018-09-02T11:15:18.025Z,23.06
2018-09-02T11:17:46.357Z,23.10
2018-09-02T11:20:14.732Z,23.17
2018-09-02T11:22:43.643Z,23.23
2018-09-02T11:25:12.402Z,23.24
2018-09-02T11:27:40.823Z,23.19
2018-09-02T11:30:09.204Z,23.18
2018-09-02T11:32:38.474Z,23.18
2018-09-02T11:35:06.797Z,23.23
2018-09-02T11:37:35.171Z,23.22
2018-09-02T11:40:03.588Z,23.21
2018-09-02T11:42:31.919Z,23.33
2018-09-02T11:45:00.301Z,23.53
2018-09-02T11:47:28.567Z,23.75
2018-09-02T11:49:56.896Z,23.92
2018-09-02T11:52:25.237Z,24.08
2018-09-02T11:54:53.563Z,24.24
2018-09-02T11:57:21.898Z,24.46
2018-09-02T11:59:50.209Z,24.69
2018-09-02T12:02:18.537Z,24.70
2018-09-02T12:04:46.937Z,24.73
2018-09-02T12:07:15.196Z,24.83
2018-09-02T12:09:43.564Z,24.94
2018-09-02T12:12:11.893Z,25.07
2018-09-02T12:14:40.249Z,25.22
2018-09-02T12:17:08.549Z,25.40
2018-09-02T12:19:36.877Z,25.57
2018-09-02T12:22:05.199Z,25.70
2018-09-02T12:24:33.525Z,25.76
2018-09-02T12:27:01.849Z,25.83
2018-09-02T12:29:30.403Z,25.96
2018-09-02T12:31:58.502Z,26.12
2018-09-02T12:34:26.249Z,26.29
2018-09-02T12:36:54.573Z,26.40
2018-09-02T12:39:22.949Z,26.49
2018-09-02T12:41:51.278Z,26.60
2018-09-02T12:44:19.621Z,26.76
2018-09-02T12:46:48.563Z,26.91
2018-09-02T12:49:16.899Z,26.98
2018-09-02T12:51:45.236Z,27.10
2018-09-02T12:54:13.617Z,27.20
2018-09-02T12:56:41.889Z,27.29
2018-09-02T12:59:10.218Z,27.33
2018-09-02T13:01:38.804Z,27.45
2018-09-02T13:04:06.916Z,27.48
2018-09-02T13:06:36.093Z,27.57
2018-09-02T13:09:07.067Z,27.71
2018-09-02T13:11:34.812Z,27.87
2018-09-02T13:14:04.557Z,27.92
2018-09-02T13:16:32.985Z,27.66
2018-09-02T13:19:02.329Z,27.60
2018-09-02T13:21:32.557Z,27.61
2018-09-02T13:24:00.127Z,27.73
2018-09-02T13:26:29.371Z,27.82
2018-09-02T13:28:57.202Z,27.84
2018-09-02T13:31:26.532Z,28.01
2018-09-02T13:33:55.519Z,28.15
2018-09-02T13:36:23.842Z,28.32
2018-09-02T13:38:52.142Z,28.35
2018-09-02T13:41:19.954Z,28.61
2018-09-02T13:43:49.190Z,28.62
2018-09-02T13:46:17.317Z,28.68
2018-09-02T13:48:46.107Z,28.88
2018-09-02T13:51:14.442Z,28.99
2018-09-02T13:53:42.195Z,29.08
2018-09-02T13:56:10.516Z,29.31
2018-09-02T13:58:39.429Z,29.32
2018-09-02T14:01:07.244Z,29.31
2018-09-02T14:03:36.069Z,29.13
2018-09-02T14:06:04.399Z,29.28
2018-09-02T14:08:32.737Z,29.52
2018-09-02T14:11:01.072Z,29.28
2018-09-02T14:13:29.404Z,29.35
2018-09-02T14:15:57.737Z,29.64
2018-09-02T14:18:26.174Z,29.75
2018-09-02T14:20:55.204Z,29.62
2018-09-02T14:23:23.547Z,29.22
2018-09-02T14:25:51.875Z,29.45
2018-09-02T14:28:20.267Z,29.76
2018-09-02T14:30:48.540Z,30.06
2018-09-02T14:33:17.139Z,30.46
2018-09-02T14:35:46.580Z,30.69
2018-09-02T14:38:14.238Z,30.70
2018-09-02T14:40:43.582Z,30.83
2018-09-02T14:43:11.365Z,31.01
2018-09-02T14:45:41.508Z,31.16
2018-09-02T14:48:09.276Z,31.14
2018-09-02T14:50:38.212Z,31.27
2018-09-02T14:53:05.939Z,31.37
2018-09-02T14:55:34.843Z,31.37
2018-09-02T14:58:03.170Z,31.72
2018-09-02T15:00:30.958Z,32.04
2018-09-02T15:02:59.293Z,32.05
2018-09-02T15:05:29.201Z,32.19
2018-09-02T15:07:56.300Z,32.12
2018-09-02T15:10:25.127Z,31.99
2018-09-02T15:12:53.458Z,31.95
2018-09-02T15:15:21.778Z,31.85
2018-09-02T15:17:50.101Z,31.69
2018-09-02T15:20:18.455Z,31.93
2018-09-02T15:22:46.793Z,31.92
2018-09-02T15:25:15.110Z,31.89
2018-09-02T15:27:42.858Z,31.82
2018-09-02T15:30:12.360Z,32.02
2018-09-02T15:32:40.681Z,32.30
2018-09-02T15:35:10.478Z,32.62
2018-09-02T15:37:38.236Z,32.61
2018-09-02T15:40:07.143Z,32.62
2018-09-02T15:42:35.462Z,32.73
2018-09-02T15:45:03.255Z,32.55
2018-09-02T15:47:32.150Z,32.31
2018-09-02T15:49:59.896Z,32.28
2018-09-02T15:52:29.667Z,31.93
2018-09-02T15:54:58.763Z,30.82
2018-09-02T15:57:26.516Z,29.76
2018-09-02T15:59:54.834Z,28.86
2018-09-02T16:02:24.988Z,28.26
2018-09-02T16:04:53.317Z,27.71
2018-09-02T16:07:21.633Z,27.23
2018-09-02T16:09:51.551Z,26.74
2018-09-02T16:12:20.454Z,26.34
2018-09-02T16:14:48.780Z,25.99
2018-09-02T16:17:17.168Z,25.77
2018-09-02T16:19:45.492Z,25.54
2018-09-02T16:22:14.388Z,25.41
2018-09-02T16:24:42.716Z,25.19
2018-09-02T16:27:11.688Z,25.05
2018-09-02T16:29:39.863Z,24.94
2018-09-02T16:32:08.152Z,24.82
2018-09-02T16:34:36.747Z,24.69
2018-09-02T16:37:04.501Z,24.47
2018-09-02T16:39:32.826Z,24.37
2018-09-02T16:42:02.068Z,24.39
2018-09-02T16:44:30.394Z,24.36
2018-09-02T16:46:59.359Z,24.25
2018-09-02T16:49:28.102Z,24.11
2018-09-02T16:51:56.998Z,24.02
2018-09-02T16:54:25.322Z,23.98
2018-09-02T16:56:53.677Z,23.90
2018-09-02T16:59:22.151Z,23.86
2018-09-02T17:01:50.486Z,23.81
2018-09-02T17:04:19.841Z,23.78
2018-09-02T17:06:47.633Z,23.76
2018-09-02T17:09:15.959Z,23.70
2018-09-02T17:11:44.942Z,23.68
2018-09-02T17:14:13.189Z,23.67
2018-09-02T17:16:41.913Z,23.59
2018-09-02T17:19:10.472Z,23.56
2018-09-02T17:21:40.083Z,23.51
2018-09-02T17:24:08.413Z,23.48
2018-09-02T17:26:36.164Z,23.39
2018-09-02T17:29:05.084Z,23.33
2018-09-02T17:31:33.415Z,23.26
2018-09-02T17:34:01.781Z,23.16
2018-09-02T17:36:29.481Z,23.15
2018-09-02T17:38:58.422Z,23.14
2018-09-02T17:41:26.758Z,23.12
2018-09-02T17:43:55.091Z,23.07
2018-09-02T17:46:25.029Z,22.92
2018-09-02T17:48:52.141Z,22.87
2018-09-02T17:51:20.513Z,22.80
2018-09-02T17:53:48.400Z,22.70
2018-09-02T17:56:17.164Z,22.64
2018-09-02T17:58:45.514Z,22.63
2018-09-02T18:01:13.839Z,22.61
2018-09-02T18:03:42.159Z,22.59
2018-09-02T18:06:10.497Z,22.59
2018-09-02T18:08:39.047Z,22.57
2018-09-02T18:11:06.757Z,22.50
2018-09-02T18:13:35.666Z,22.48
2018-09-02T18:16:04.003Z,22.44
2018-09-02T18:18:32.336Z,22.38
2018-09-02T18:21:00.695Z,22.31
2018-09-02T18:23:28.459Z,22.21
2018-09-02T18:25:57.342Z,22.12
2018-09-02T18:28:25.681Z,22.06
2018-09-02T18:30:54.035Z,21.95
2018-09-02T18:33:22.359Z,21.90
2018-09-02T18:35:51.310Z,21.84
2018-09-02T18:38:19.645Z,21.80
2018-09-02T18:40:47.978Z,21.64
2018-09-02T18:43:16.322Z,21.48
2018-09-02T18:45:44.665Z,21.42
2018-09-02T18:48:13.025Z,21.33
2018-09-02T18:50:41.463Z,21.29
2018-09-02T18:53:09.822Z,21.27
2018-09-02T18:55:38.192Z,21.23
2018-09-02T18:58:06.525Z,21.29
2018-09-02T19:00:34.907Z,21.37
2018-09-02T19:03:03.324Z,21.46
2018-09-02T19:05:31.583Z,21.49
2018-09-02T19:07:59.910Z,21.51
2018-09-02T19:10:28.265Z,21.44
2018-09-02T19:12:56.081Z,21.31
2018-09-02T19:15:25.033Z,21.17
2018-09-02T19:17:52.837Z,21.02
2018-09-02T19:20:21.183Z,20.90
2018-09-02T19:22:50.186Z,20.79
2018-09-02T19:25:18.514Z,20.70
2018-09-02T19:27:46.933Z,20.58
2018-09-02T19:30:15.404Z,20.51
2018-09-02T19:32:43.749Z,20.54
2018-09-02T19:35:12.075Z,20.49
2018-09-02T19:37:40.422Z,20.43
2018-09-02T19:40:10.776Z,20.29
2018-09-02T19:42:40.795Z,20.11
2018-09-02T19:45:09.204Z,20.01
2018-09-02T19:47:38.419Z,19.86
2018-09-02T19:50:06.777Z,19.78
2018-09-02T19:52:38.378Z,19.73
2018-09-02T19:55:05.655Z,19.68
2018-09-02T19:57:34.040Z,19.70
2018-09-02T20:00:02.406Z,19.79
2018-09-02T20:02:30.162Z,19.86
2018-09-02T20:04:59.065Z,19.83
2018-09-02T20:07:26.920Z,19.79
2018-09-02T20:09:55.917Z,19.79
2018-09-02T20:12:24.290Z,19.72
2018-09-02T20:14:52.703Z,19.66
2018-09-02T20:17:20.554Z,19.66
2018-09-02T20:19:49.611Z,19.71
2018-09-02T20:22:17.977Z,19.83
2018-09-02T20:24:46.329Z,19.85
2018-09-02T20:27:14.121Z,19.81
2018-09-02T20:29:42.478Z,19.84
2018-09-02T20:32:11.443Z,19.86
2018-09-02T20:34:39.775Z,19.92
2018-09-02T20:37:08.162Z,19.97
2018-09-02T20:39:36.512Z,20.08
2018-09-02T20:42:04.900Z,20.14
2018-09-02T20:44:33.441Z,20.18
2018-09-02T20:47:01.544Z,20.17
2018-09-02T20:49:29.968Z,20.21
2018-09-02T20:51:57.875Z,20.15
2018-09-02T20:54:26.715Z,20.13
2018-09-02T20:56:55.047Z,20.22
2018-09-02T20:59:22.802Z,20.28
2018-09-02T21:01:51.722Z,20.32
2018-09-02T21:04:20.053Z,20.36
2018-09-02T21:06:48.402Z,20.32
2018-09-02T21:09:16.714Z,20.33
2018-09-02T21:11:45.076Z,20.33
2018-09-02T21:14:13.429Z,20.30
2018-09-02T21:16:41.770Z,20.31
2018-09-02T21:19:10.120Z,20.30
2018-09-02T21:21:38.484Z,20.30
2018-09-02T21:24:06.243Z,20.29
2018-09-02T21:26:35.293Z,20.26
2018-09-02T21:29:03.608Z,20.23
2018-09-02T21:31:31.937Z,20.21
2018-09-02T21:34:00.273Z,20.19
2018-09-02T21:36:28.606Z,20.11
2018-09-02T21:38:56.927Z,20.09
2018-09-02T21:41:25.299Z,20.08
2018-09-02T21:43:53.830Z,20.04
2018-09-02T21:46:21.928Z,20.03
2018-09-02T21:48:49.679Z,20.00
2018-09-02T21:51:18.002Z,19.93
2018-09-02T21:53:48.905Z,19.84
2018-09-02T21:56:16.684Z,19.75
2018-09-02T21:58:45.636Z,19.65
2018-09-02T22:01:13.982Z,19.57
2018-09-02T22:03:42.338Z,19.47
2018-09-02T22:06:11.633Z,19.34
2018-09-02T22:08:38.996Z,19.09
2018-09-02T22:11:06.850Z,18.94
2018-09-02T22:13:35.652Z,18.90
2018-09-02T22:16:03.992Z,18.85
2018-09-02T22:18:35.796Z,18.86
2018-09-02T22:21:04.245Z,18.87
2018-09-02T22:23:32.761Z,18.81
2018-09-02T22:26:02.132Z,18.80
2018-09-02T22:28:29.890Z,18.80
2018-09-02T22:30:58.900Z,18.74
2018-09-02T22:33:26.978Z,18.77
2018-09-02T22:35:57.145Z,18.89
2018-09-02T22:38:24.372Z,19.03
2018-09-02T22:40:56.486Z,19.14
2018-09-02T22:43:24.402Z,19.23
2018-09-02T22:45:52.664Z,19.31
2018-09-02T22:48:20.993Z,19.37
2018-09-02T22:50:49.900Z,19.27
2018-09-02T22:53:18.957Z,19.07
2018-09-02T22:55:47.358Z,18.97
2018-09-02T22:58:17.153Z,18.89
2018-09-02T23:00:46.717Z,18.84
2018-09-02T23:03:15.027Z,18.78
2018-09-02T23:05:43.652Z,18.71
2018-09-02T23:08:11.959Z,18.72
2018-09-02T23:10:40.285Z,18.73
2018-09-02T23:13:08.614Z,18.64
2018-09-02T23:15:36.924Z,18.59
2018-09-02T23:18:05.491Z,18.59
2018-09-02T23:20:33.790Z,18.61
2018-09-02T23:23:02.708Z,18.65
2018-09-02T23:25:36.503Z,18.60
2018-09-02T23:28:03.542Z,18.63
2018-09-02T23:30:32.567Z,18.74
2018-09-02T23:33:01.167Z,18.85
2018-09-02T23:35:28.915Z,18.93
2018-09-02T23:37:57.232Z,18.99
2018-09-02T23:40:29.406Z,19.03
2018-09-02T23:42:56.020Z,19.01
2018-09-02T23:45:24.358Z,18.89
2018-09-02T23:47:52.722Z,18.63
2018-09-02T23:50:20.923Z,18.41
2018-09-02T23:52:49.257Z,18.31
2018-09-02T23:55:18.174Z,18.22
2018-09-02T23:57:46.496Z,18.22
